Time;durP1;ratioP1;P1;durP2;ratioP2;P2;SDS_P1;SDS_P2;PMS_P1;PMS_P2;Temp;Humidity;BMP_temperature;BMP_pressure;BME280_temperature;BME280_humidity;BME280_pressure;Samples;Min_cycle;Max_cycle;Signal;HPM_P1;HPM_P2
2022/06/09 00:05:25;;;;;;;4.30;1.30;;;;;;;20.40;46.96;96909.72;10312907;28;20057;-84
2022/06/09 00:10:52;;;;;;;2.45;1.00;;;;;;;20.41;47.43;96911.88;10312392;28;20046;-83
2022/06/09 00:16:14;;;;;;;3.20;1.33;;;;;;;20.45;47.55;96905.56;10325860;28;20043;-84
2022/06/09 00:21:35;;;;;;;1.75;0.82;;;;;;;20.52;47.73;96904.97;10312140;28;20488;-84
2022/06/09 00:26:56;;;;;;;2.08;0.75;;;;;;;20.57;48.73;96902.94;10311877;28;20117;-83
2022/06/09 00:32:16;;;;;;;4.80;0.80;;;;;;;20.51;48.90;96895.03;10311594;28;20042;-84
2022/06/09 00:37:37;;;;;;;2.03;0.60;;;;;;;20.45;48.88;96897.06;10297939;28;20133;-83
2022/06/09 00:42:59;;;;;;;2.22;0.50;;;;;;;20.39;48.67;96896.97;10324487;28;20049;-84
2022/06/09 00:48:50;;;;;;;2.58;0.55;;;;;;;20.35;50.00;96885.53;10324358;28;20045;-84
2022/06/09 00:54:17;;;;;;;2.58;0.60;;;;;;;20.24;49.31;96876.88;10324327;28;20092;-84
2022/06/09 00:59:39;;;;;;;2.55;0.70;;;;;;;20.11;49.48;96878.09;10323949;28;20046;-84
2022/06/09 01:05:01;;;;;;;3.50;0.50;;;;;;;19.98;49.88;96885.69;10323718;28;20073;-84
2022/06/09 01:10:22;;;;;;;2.38;0.68;;;;;;;19.91;50.27;96880.59;10323410;28;20122;-85
2022/06/09 01:15:55;;;;;;;3.10;0.57;;;;;;;19.87;50.99;96883.34;10309855;28;20127;-84
2022/06/09 01:21:44;;;;;;;2.55;0.50;;;;;;;19.83;50.87;96883.28;10323094;28;20056;-84
2022/06/09 01:27:23;;;;;;;2.25;0.50;;;;;;;19.84;51.09;96884.72;10324325;28;20046;-84
2022/06/09 01:32:55;;;;;;;1.75;0.50;;;;;;;19.86;51.10;96879.06;10322465;28;20100;-84
2022/06/09 01:38:15;;;;;;;1.08;0.50;;;;;;;19.80;51.19;96881.81;10322924;28;20125;-85
2022/06/09 01:43:36;;;;;;;1.52;0.40;;;;;;;19.81;51.27;96883.25;10295649;28;20042;-84
2022/06/09 01:49:07;;;;;;;3.15;0.60;;;;;;;19.79;51.49;96883.22;10295452;28;20054;-85
2022/06/09 01:54:34;;;;;;;0.82;0.47;;;;;;;19.60;52.36;96899.16;10323141;28;20495;-84
2022/06/09 01:59:59;;;;;;;0.85;0.45;;;;;;;19.39;52.22;96912.16;10321959;28;20044;-84
2022/06/09 02:05:24;;;;;;;2.80;0.40;;;;;;;19.26;52.34;96913.31;10321449;28;20130;-84
2022/06/09 02:10:46;;;;;;;2.90;0.60;;;;;;;19.15;52.86;96918.03;10308030;28;20050;-83
2022/06/09 02:16:09;;;;;;;2.22;0.60;;;;;;;19.10;53.49;96931.38;10335090;28;20113;-84
2022/06/09 02:21:32;;;;;;;0.90;0.40;;;;;;;19.05;54.15;96920.66;10321180;28;20052;-84
2022/06/09 02:26:53;;;;;;;1.70;0.50;;;;;;;18.92;53.98;96914.03;10321052;28;20461;-85
2022/06/09 02:32:14;;;;;;;2.15;0.40;;;;;;;18.83;54.59;96918.06;10292989;28;20077;-84
2022/06/09 02:37:34;;;;;;;1.48;0.50;;;;;;;18.68;55.41;96917.03;10307033;28;20548;-86
2022/06/09 02:42:55;;;;;;;1.75;0.38;;;;;;;18.57;55.73;96910.41;10306899;28;20054;-84
2022/06/09 02:48:17;;;;;;;1.38;0.50;;;;;;;18.51;56.32;96909.53;10319950;28;20479;-84
2022/06/09 02:53:38;;;;;;;2.17;0.52;;;;;;;18.49;56.93;96920.78;10319973;28;20374;-84
2022/06/09 02:58:59;;;;;;;2.17;0.50;;;;;;;18.48;56.72;96922.19;10320170;28;20078;-86
2022/06/09 03:04:19;;;;;;;5.68;0.60;;;;;;;18.47;56.88;96923.56;10291736;28;20046;-84
2022/06/09 03:09:40;;;;;;;2.50;0.55;;;;;;;18.45;57.15;96927.06;10292685;28;20108;-86
2022/06/09 03:15:02;;;;;;;2.05;0.57;;;;;;;18.45;57.19;96934.84;10306067;28;20481;-87
2022/06/09 03:20:25;;;;;;;2.13;0.50;;;;;;;18.51;57.40;96932.13;10305894;28;20042;-83
2022/06/09 03:25:48;;;;;;;6.25;1.67;;;;;;;18.50;57.12;96945.56;10293674;28;20052;-90
2022/06/09 03:31:09;;;;;;;4.35;0.70;;;;;;;18.46;56.98;96945.47;10294667;28;20243;-89
2022/06/09 03:36:31;;;;;;;1.85;0.52;;;;;;;18.42;57.24;96948.16;10292534;28;20062;-85
2022/06/09 03:41:52;;;;;;;2.50;0.60;;;;;;;18.45;57.17;96946.84;10337520;28;20049;-92
2022/06/09 03:47:13;;;;;;;2.42;0.70;;;;;;;18.44;57.57;96959.53;10327109;28;20559;-91
2022/06/09 03:52:35;;;;;;;2.38;0.50;;;;;;;18.49;57.62;96963.91;10313565;28;20127;-86
2022/06/09 03:57:55;;;;;;;1.00;0.63;;;;;;;18.53;57.83;96966.84;10326736;28;20049;-88
2022/06/09 04:03:16;;;;;;;1.60;0.55;;;;;;;18.56;58.17;96968.31;10328182;28;20129;-82
2022/06/09 04:08:37;;;;;;;1.65;0.50;;;;;;;18.62;57.54;96976.19;10312207;28;20117;-82
2022/06/09 04:13:59;;;;;;;2.55;0.70;;;;;;;18.67;57.62;96988.34;10325902;28;20038;-82
2022/06/09 04:19:20;;;;;;;1.65;0.60;;;;;;;18.75;57.63;97000.59;10324931;28;20048;-82
2022/06/09 04:24:40;;;;;;;2.03;0.57;;;;;;;18.82;57.49;96999.34;10311730;28;20042;-82
2022/06/09 04:30:02;;;;;;;2.42;0.70;;;;;;;18.90;57.27;97009.38;10311402;28;20046;-82
2022/06/09 04:35:23;;;;;;;7.25;0.90;;;;;;;19.02;57.06;97010.41;10297955;28;20066;-86
2022/06/09 04:40:44;;;;;;;3.38;0.75;;;;;;;19.16;56.80;97007.88;10310635;28;20045;-84
2022/06/09 04:46:04;;;;;;;1.77;0.60;;;;;;;19.21;56.27;97016.47;10310972;28;20472;-84
2022/06/09 04:51:26;;;;;;;4.53;1.30;;;;;;;19.28;56.63;97015.91;10318741;28;20050;-76
2022/06/09 04:56:47;;;;;;;3.75;0.80;;;;;;;19.38;56.03;97018.97;10299798;28;20165;-79
2022/06/09 05:02:08;;;;;;;2.10;0.65;;;;;;;19.51;55.75;97027.72;10294011;28;20403;-78
2022/06/09 05:07:28;;;;;;;4.82;0.70;;;;;;;19.61;55.47;97036.47;10297631;28;20047;-79
2022/06/09 05:12:49;;;;;;;3.45;0.70;;;;;;;19.62;55.74;97049.94;10256668;28;20053;-78
2022/06/09 05:18:11;;;;;;;4.03;1.00;;;;;;;19.72;55.40;97058.63;10269380;28;20051;-77
2022/06/09 05:23:32;;;;;;;4.10;0.65;;;;;;;19.77;54.91;97065.09;10240826;28;20055;-76
2022/06/09 05:28:52;;;;;;;2.50;0.82;;;;;;;19.77;54.99;97078.53;10269555;28;20053;-83
2022/06/09 05:34:13;;;;;;;2.45;0.70;;;;;;;19.70;54.83;97086.91;10282672;28;20404;-78
2022/06/09 05:45:13;;;;;;;4.00;0.80;;;;;;;19.96;54.48;97091.66;10284459;28;20388;-82
2022/06/09 05:50:34;;;;;;;1.27;0.70;;;;;;;20.20;54.61;97095.00;10268450;28;20070;-82
2022/06/09 05:55:55;;;;;;;2.72;0.70;;;;;;;20.40;54.13;97096.78;10272168;28;20133;-82
2022/06/09 06:01:15;;;;;;;4.82;0.85;;;;;;;20.60;53.52;97091.50;10307766;28;20053;-82
2022/06/09 06:06:36;;;;;;;5.07;0.90;;;;;;;20.98;53.47;97091.44;10321086;28;20042;-82
2022/06/09 06:12:03;;;;;;;4.05;0.60;;;;;;;21.42;52.80;97108.50;10306000;28;20129;-74
2022/06/09 06:17:28;;;;;;;3.58;0.60;;;;;;;22.11;51.56;97105.19;10321545;28;20511;-74
2022/06/09 06:22:49;;;;;;;3.00;0.70;;;;;;;22.41;51.02;97119.75;10320451;28;20043;-81
2022/06/09 06:28:10;;;;;;;6.25;0.85;;;;;;;22.43;50.07;97122.59;10320303;28;20042;-81
2022/06/09 06:33:31;;;;;;;3.50;0.90;;;;;;;22.80;49.76;97131.50;10306799;28;20187;-81
2022/06/09 06:38:51;;;;;;;6.13;0.60;;;;;;;22.94;48.95;97142.31;10319698;28;20408;-81
2022/06/09 06:44:12;;;;;;;3.67;0.50;;;;;;;23.14;48.46;97140.38;10319915;28;20038;-81
2022/06/09 06:49:34;;;;;;;1.90;0.63;;;;;;;23.57;47.38;97143.56;10319751;28;20050;-83
2022/06/09 06:54:54;;;;;;;3.25;0.68;;;;;;;23.80;46.62;97135.91;10304622;28;20053;-80
2022/06/09 07:00:18;;;;;;;3.83;0.60;;;;;;;24.44;45.90;97142.63;10319173;28;20046;-80
2022/06/09 07:05:39;;;;;;;3.13;0.60;;;;;;;25.29;45.07;97137.09;10318448;28;20046;-80
2022/06/09 07:11:00;;;;;;;5.88;0.60;;;;;;;26.12;43.29;97146.97;10319428;28;20053;-79
2022/06/09 07:16:21;;;;;;;3.55;0.55;;;;;;;26.88;42.08;97153.09;10318689;28;20485;-80
2022/06/09 07:22:02;;;;;;;4.18;0.65;;;;;;;28.06;40.36;97161.44;10321866;28;20038;-80
2022/06/09 07:27:24;;;;;;;2.97;0.60;;;;;;;29.43;38.47;97177.56;10319310;28;20046;-80
2022/06/09 07:32:45;;;;;;;3.93;0.57;;;;;;;28.93;36.77;97184.81;10319245;28;20054;-80
2022/06/09 07:38:07;;;;;;;0.98;0.40;;;;;;;29.05;36.25;97191.09;10319194;28;20415;-80
2022/06/09 07:43:27;;;;;;;3.72;1.15;;;;;;;28.96;36.07;97192.66;10318894;28;20508;-80
2022/06/09 07:48:48;;;;;;;2.33;0.60;;;;;;;29.67;35.53;97187.28;10318645;28;20042;-80
2022/06/09 07:54:10;;;;;;;2.83;0.47;;;;;;;30.61;33.73;97197.78;10318753;28;20447;-80
2022/06/09 07:59:31;;;;;;;3.88;0.47;;;;;;;31.68;31.17;97197.56;10318599;28;20428;-80
2022/06/09 08:04:52;;;;;;;2.55;0.50;;;;;;;29.76;32.14;97197.91;10318523;28;20133;-80
2022/06/09 08:10:17;;;;;;;2.08;0.47;;;;;;;27.85;33.38;97208.97;10318198;28;20046;-80
2022/06/09 08:15:38;;;;;;;1.38;0.50;;;;;;;26.41;35.02;97214.13;10318374;28;20052;-80
2022/06/09 08:20:59;;;;;;;4.22;1.17;;;;;;;25.69;36.38;97212.78;10304664;28;20120;-79
2022/06/09 08:26:37;;;;;;;5.43;1.90;;;;;;;25.53;37.14;97222.06;10318809;28;20046;-80
2022/06/09 08:31:58;;;;;;;6.80;1.98;;;;;;;25.93;36.49;97221.34;10325012;28;20477;-80
2022/06/09 08:37:18;;;;;;;10.80;7.53;;;;;;;25.40;37.06;97232.78;10324776;28;20077;-80
2022/06/09 08:43:16;;;;;;;2.58;1.30;;;;;;;24.92;37.96;97235.53;10324864;28;20078;-79
2022/06/09 08:48:39;;;;;;;2.70;1.00;;;;;;;24.86;38.14;97241.19;10324373;28;20043;-79
2022/06/09 08:54:05;;;;;;;3.40;0.65;;;;;;;25.10;37.95;97256.31;10324336;28;20465;-80
2022/06/09 08:59:28;;;;;;;3.20;0.50;;;;;;;24.68;38.15;97256.13;10310625;28;20085;-80
2022/06/09 09:04:53;;;;;;;3.42;0.45;;;;;;;24.02;38.66;97260.72;10336841;28;20492;-80
2022/06/09 09:10:47;;;;;;;2.33;0.50;;;;;;;23.42;40.10;97268.03;10323044;28;20054;-80
2022/06/09 09:16:25;;;;;;;1.88;0.47;;;;;;;23.01;40.89;97269.75;10322250;28;20058;-81
2022/06/09 09:21:48;;;;;;;4.57;0.77;;;;;;;22.57;41.33;97273.47;10309960;28;20038;-80
2022/06/09 09:27:35;;;;;;;2.55;0.98;;;;;;;22.10;42.48;97279.91;10336679;28;20138;-81
2022/06/09 09:32:56;;;;;;;1.55;0.32;;;;;;;21.69;43.46;97288.50;10336732;28;20057;-83
2022/06/09 09:38:18;;;;;;;1.17;0.28;;;;;;;21.50;43.91;97286.03;10306248;28;20504;-83
2022/06/09 09:43:40;;;;;;;1.50;0.40;;;;;;;21.35;44.83;97297.16;10335681;28;20400;-84
2022/06/09 09:49:15;;;;;;;2.72;0.40;;;;;;;21.27;45.01;97291.31;10281930;28;20452;-83
2022/06/09 09:54:37;;;;;;;2.70;0.50;;;;;;;21.42;45.55;97287.34;10311845;28;20047;-85
2022/06/09 09:59:58;;;;;;;;;;;;;;;21.69;46.40;97297.00;10321807;28;20098;-84
2022/06/09 10:11:54;;;;;;;1.83;0.60;;;;;;;22.32;45.61;97305.13;10320907;28;20054;-83
2022/06/09 10:17:26;;;;;;;2.15;0.60;;;;;;;22.66;45.51;97308.44;10336922;28;20488;-83
2022/06/09 10:23:13;;;;;;;6.97;0.70;;;;;;;22.96;45.14;97321.63;10334532;28;20042;-83
2022/06/09 10:28:46;;;;;;;17.98;1.98;;;;;;;23.06;45.01;97316.75;10333845;28;20049;-83
2022/06/09 10:34:10;;;;;;;;;;;;;;;23.12;44.55;97331.06;10307284;28;20105;-83
2022/06/09 10:39:49;;;;;;;4.97;0.47;;;;;;;22.81;44.58;97334.94;10333484;28;19928;-83
2022/06/09 10:45:20;;;;;;;4.57;0.43;;;;;;;22.41;45.10;97338.66;10304443;28;20038;-83
2022/06/09 10:56:40;;;;;;;3.08;0.45;;;;;;;22.40;45.44;97325.88;10322562;28;20046;-83
2022/06/09 11:02:01;;;;;;;4.65;0.60;;;;;;;22.19;45.26;97350.41;10332836;28;20138;-83
2022/06/09 11:08:02;;;;;;;3.20;0.57;;;;;;;22.01;45.87;97344.44;10305705;28;20061;-83
2022/06/09 11:13:35;;;;;;;1.00;0.20;;;;;;;21.88;46.04;97349.16;10292576;28;20046;-86
2022/06/09 11:19:10;;;;;;;4.13;0.32;;;;;;;21.83;46.12;97350.53;10316393;28;20143;-91
2022/06/09 11:24:36;;;;;;;13.88;0.73;;;;;;;21.69;46.16;97358.78;10300487;28;20121;-90
2022/06/09 11:30:18;;;;;;;5.75;0.40;;;;;;;21.39;46.58;97361.78;10309315;28;20038;-90
2022/06/09 11:35:47;;;;;;;3.55;0.30;;;;;;;21.44;46.85;97374.66;10296993;28;20122;-91
2022/06/09 11:41:15;;;;;;;1.58;0.20;;;;;;;21.56;46.85;97371.34;10328665;28;20050;-92
2022/06/09 11:46:58;;;;;;;0.85;0.20;;;;;;;21.86;46.58;97374.00;10333613;28;20100;-92
2022/06/09 11:52:24;;;;;;;0.70;0.30;;;;;;;21.94;46.24;97374.13;10313955;28;20082;-92
2022/06/09 11:57:47;;;;;;;1.25;0.20;;;;;;;21.91;46.18;97384.75;10302849;28;20054;-92
2022/06/09 12:03:26;;;;;;;0.63;0.30;;;;;;;21.90;45.97;97382.56;10315010;28;20034;-93
2022/06/09 12:08:59;;;;;;;2.97;0.30;;;;;;;22.17;46.04;97393.00;10316420;28;20062;-92
2022/06/09 12:14:32;;;;;;;1.38;0.30;;;;;;;22.66;45.53;97395.88;10289182;28;20039;-86
2022/06/09 12:19:55;;;;;;;0.55;0.20;;;;;;;23.32;44.65;97389.66;10315473;28;20050;-81
2022/06/09 12:25:17;;;;;;;2.70;0.30;;;;;;;23.91;43.54;97402.44;10329168;28;20034;-82
2022/06/09 12:30:39;;;;;;;2.75;0.20;;;;;;;24.23;42.50;97407.72;10337781;28;20054;-85
2022/06/09 12:36:11;;;;;;;1.03;0.20;;;;;;;24.61;41.22;97412.31;10311248;28;20062;-86
2022/06/09 12:41:37;;;;;;;0.70;0.20;;;;;;;24.13;41.74;97419.03;10338314;28;20046;-84
2022/06/09 12:47:16;;;;;;;3.38;0.20;;;;;;;23.49;42.06;97421.91;10311554;28;20069;-76
2022/06/09 12:52:39;;;;;;;1.55;0.20;;;;;;;23.25;42.17;97416.63;10338797;28;20073;-93
2022/06/09 12:58:15;;;;;;;0.55;0.20;;;;;;;23.08;42.42;97424.25;10325831;28;20065;-90
2022/06/09 13:03:46;;;;;;;1.00;0.30;;;;;;;22.89;42.62;97437.53;10324887;28;20046;-81
2022/06/09 13:09:27;;;;;;;0.70;0.30;;;;;;;22.40;43.05;97450.25;10324450;28;20038;-89
2022/06/09 13:14:48;;;;;;;1.88;0.30;;;;;;;22.09;43.28;97461.09;10324394;28;20053;-92
2022/06/09 13:20:16;;;;;;;2.05;0.50;;;;;;;22.02;43.95;97453.84;10297256;28;20065;-92
2022/06/09 13:25:36;;;;;;;1.00;0.30;;;;;;;21.89;43.88;97460.69;10323942;28;20034;-90
2022/06/09 13:30:57;;;;;;;2.10;0.60;;;;;;;21.78;44.29;97473.28;10310579;28;20042;-84
2022/06/09 13:36:25;;;;;;;1.15;0.40;;;;;;;21.64;44.66;97476.56;10296110;28;20508;-85
2022/06/09 13:41:45;;;;;;;1.83;0.60;;;;;;;21.66;45.31;97473.75;10332823;28;20126;-84
2022/06/09 13:47:16;;;;;;;2.10;0.38;;;;;;;21.69;44.96;97473.09;10308855;28;20042;-85
2022/06/09 13:52:40;;;;;;;0.90;0.30;;;;;;;21.76;45.20;97476.78;10335525;28;20057;-84
2022/06/09 13:58:00;;;;;;;2.53;0.50;;;;;;;21.85;45.51;97472.00;10322107;28;20401;-85
2022/06/09 14:03:25;;;;;;;3.65;0.30;;;;;;;22.03;45.32;97466.66;10307733;28;20046;-82
2022/06/09 14:08:48;;;;;;;3.05;0.88;;;;;;;22.40;44.88;97470.88;10307940;28;20096;-83
2022/06/09 14:14:09;;;;;;;1.13;0.32;;;;;;;22.72;44.35;97476.34;10281206;28;20050;-83
2022/06/09 14:19:30;;;;;;;2.08;0.40;;;;;;;22.89;43.99;97485.19;10307322;28;20046;-82
2022/06/09 14:24:51;;;;;;;2.60;0.50;;;;;;;22.74;44.31;97479.22;10293968;28;20081;-82
2022/06/09 14:30:13;;;;;;;1.85;0.40;;;;;;;22.52;44.32;97487.41;10307012;28;20050;-82
2022/06/09 14:35:34;;;;;;;0.67;0.40;;;;;;;22.32;44.69;97499.16;10306870;28;20112;-82
2022/06/09 14:40:54;;;;;;;3.63;0.60;;;;;;;22.23;44.81;97498.31;10297726;28;20047;-82
2022/06/09 14:46:29;;;;;;;2.38;1.02;;;;;;;22.38;44.66;97501.38;10293240;28;20390;-81
2022/06/09 14:51:50;;;;;;;2.80;0.50;;;;;;;22.43;44.29;97495.09;10280163;28;20055;-82
2022/06/09 14:57:16;;;;;;;2.22;0.50;;;;;;;22.40;44.58;97502.16;10266387;28;20389;-74
2022/06/09 15:02:38;;;;;;;0.50;0.30;;;;;;;22.57;44.36;97498.16;10266627;28;20110;-82
2022/06/09 15:07:59;;;;;;;1.05;0.20;;;;;;;22.76;44.16;97509.84;10266166;28;20397;-83
2022/06/09 15:13:20;;;;;;;1.08;0.28;;;;;;;23.03;43.61;97514.56;10279439;28;20054;-82
2022/06/09 15:18:42;;;;;;;1.98;0.30;;;;;;;23.27;43.23;97513.47;10252983;28;20469;-83
2022/06/09 15:24:04;;;;;;;0.68;0.28;;;;;;;23.43;42.60;97514.41;10266156;28;20078;-83
2022/06/09 15:29:24;;;;;;;0.77;0.40;;;;;;;23.41;42.65;97517.22;10279237;28;20046;-76
2022/06/09 15:34:45;;;;;;;0.85;0.20;;;;;;;23.60;42.44;97520.34;10265571;28;20047;-76
2022/06/09 15:40:07;;;;;;;1.15;0.30;;;;;;;23.90;41.98;97523.56;10286994;28;20050;-76
2022/06/09 15:45:28;;;;;;;0.50;0.30;;;;;;;24.09;41.72;97515.91;10273358;28;20042;-85
2022/06/09 15:50:49;;;;;;;1.38;0.32;;;;;;;24.11;40.79;97527.34;10273311;28;20050;-82
2022/06/09 15:56:09;;;;;;;1.27;0.30;;;;;;;23.98;40.63;97523.66;10273240;28;20163;-92
2022/06/09 16:01:30;;;;;;;1.15;0.50;;;;;;;23.91;41.13;97527.84;10273073;28;20066;-83
2022/06/09 16:06:51;;;;;;;1.65;0.50;;;;;;;23.84;40.68;97528.47;10259066;28;20047;-76
2022/06/09 16:12:11;;;;;;;2.22;0.52;;;;;;;23.58;40.88;97535.25;10272834;28;20055;-89
2022/06/09 16:17:33;;;;;;;1.88;0.50;;;;;;;23.08;41.20;97541.69;10258984;28;20042;-85
2022/06/09 16:22:53;;;;;;;2.22;0.80;;;;;;;22.88;41.79;97555.59;10258595;28;20042;-86
2022/06/09 16:28:15;;;;;;;2.55;0.70;;;;;;;22.71;41.63;97559.56;10272343;28;20047;-90
2022/06/09 16:33:35;;;;;;;1.52;0.60;;;;;;;22.35;41.93;97571.72;10257986;28;20505;-88
2022/06/09 16:38:56;;;;;;;2.58;0.60;;;;;;;22.23;42.24;97582.88;10258388;28;20059;-91
2022/06/09 16:44:16;;;;;;;3.35;1.33;;;;;;;22.11;42.47;97588.31;10257832;28;20047;-90
2022/06/09 16:49:37;;;;;;;1.58;0.80;;;;;;;21.94;43.01;97585.13;10269703;28;20047;-89
2022/06/09 16:54:58;;;;;;;3.28;0.80;;;;;;;21.80;43.25;97590.50;10257738;28;20043;-83
2022/06/09 17:00:22;;;;;;;1.95;0.68;;;;;;;21.75;43.38;97600.34;10259057;28;20054;-84
2022/06/09 17:05:49;;;;;;;3.25;0.70;;;;;;;21.78;43.32;97601.81;10270513;28;20129;-90
2022/06/09 17:11:12;;;;;;;2.63;0.75;;;;;;;21.79;43.71;97619.59;10270566;28;20051;-89
2022/06/09 17:16:33;;;;;;;;;;;;;;;21.79;44.06;97623.16;10270214;28;20050;-83
2022/06/09 17:21:54;;;;;;;1.20;0.70;;;;;;;21.75;43.90;97625.91;10296410;28;19922;-82
2022/06/09 17:27:15;;;;;;;1.98;0.73;;;;;;;21.66;44.06;97629.97;10282662;28;20362;-82
2022/06/09 17:32:36;;;;;;;3.58;1.13;;;;;;;21.47;44.80;97633.78;10282580;28;20053;-85
2022/06/09 17:37:57;;;;;;;2.88;0.88;;;;;;;21.25;45.04;97645.34;10296112;28;20059;-84
2022/06/09 17:43:17;;;;;;;5.47;1.00;;;;;;;21.10;45.34;97647.09;10268584;28;20054;-84
2022/06/09 17:48:38;;;;;;;6.05;0.95;;;;;;;20.91;45.59;97643.06;10295975;28;20038;-84
2022/06/09 17:53:59;;;;;;;2.28;0.98;;;;;;;20.76;46.32;97659.03;10308022;28;20034;-83
2022/06/09 17:59:19;;;;;;;3.25;1.20;;;;;;;20.64;46.62;97652.28;10304514;28;20045;-86
2022/06/09 18:04:40;;;;;;;3.92;1.20;;;;;;;20.54;46.80;97652.75;10282127;28;20042;-86
2022/06/09 18:10:01;;;;;;;2.55;0.90;;;;;;;20.31;47.00;97657.06;10286628;28;20065;-86
2022/06/09 18:15:21;;;;;;;3.17;1.20;;;;;;;20.25;47.49;97671.03;10320906;28;20165;-93
2022/06/09 18:20:42;;;;;;;2.60;1.02;;;;;;;20.21;47.62;97690.78;10320154;28;20377;-86
2022/06/09 18:26:04;;;;;;;3.03;1.05;;;;;;;20.17;47.88;97693.47;10317653;28;20046;-87
2022/06/09 18:31:25;;;;;;;4.50;1.42;;;;;;;20.07;48.20;97696.03;10307343;28;20054;-87
2022/06/09 18:36:45;;;;;;;4.78;1.50;;;;;;;19.96;48.58;97720.50;10306359;28;20500;-90
2022/06/09 18:42:08;;;;;;;2.53;1.23;;;;;;;19.86;49.04;97723.75;10306927;28;20105;-88
2022/06/09 18:47:29;;;;;;;5.80;1.70;;;;;;;19.78;48.71;97731.97;10306826;28;20477;-86
2022/06/09 18:52:50;;;;;;;4.85;1.52;;;;;;;19.66;49.43;97737.28;10319753;28;20539;-89
2022/06/09 18:58:10;;;;;;;3.72;1.30;;;;;;;19.55;49.54;97741.13;10307153;28;20108;-91
2022/06/09 19:03:31;;;;;;;1.90;1.25;;;;;;;19.40;49.63;97745.63;10307577;28;20058;-89
2022/06/09 19:08:51;;;;;;;3.25;1.30;;;;;;;19.33;49.96;97756.00;10305679;28;20054;-87
2022/06/09 19:14:12;;;;;;;2.95;1.30;;;;;;;19.26;50.14;97756.47;10292438;28;20053;-88
2022/06/09 19:19:34;;;;;;;2.92;1.35;;;;;;;19.19;50.20;97760.47;10292580;28;20046;-89
2022/06/09 19:25:01;;;;;;;3.80;1.50;;;;;;;19.10;50.48;97768.66;10319310;28;20057;-87
2022/06/09 19:30:29;;;;;;;3.28;1.67;;;;;;;19.02;51.08;97782.56;10305433;28;20448;-84
2022/06/09 19:35:52;;;;;;;3.53;1.70;;;;;;;18.92;50.94;97782.19;10333748;28;20057;-86
2022/06/09 19:41:16;;;;;;;4.32;1.23;;;;;;;18.82;51.08;97795.97;10319101;28;20053;-90
2022/06/09 19:46:37;;;;;;;3.03;1.67;;;;;;;18.75;51.59;97808.44;10291603;28;20042;-82
2022/06/09 19:51:58;;;;;;;5.50;1.50;;;;;;;18.65;51.54;97808.06;10291966;28;20120;-85
2022/06/09 19:57:20;;;;;;;2.55;1.50;;;;;;;18.54;51.68;97824.63;10291551;28;20045;-90
2022/06/09 20:02:41;;;;;;;2.67;1.23;;;;;;;18.46;52.00;97829.25;10292611;28;20046;-87
2022/06/09 20:08:02;;;;;;;3.88;1.25;;;;;;;18.41;51.79;97839.66;10316163;28;20039;-89
2022/06/09 20:13:24;;;;;;;3.47;1.40;;;;;;;18.34;51.97;97846.47;10302817;28;20412;-87
2022/06/09 20:18:45;;;;;;;5.35;1.77;;;;;;;18.24;52.21;97848.91;10303457;28;20047;-85
2022/06/09 20:24:06;;;;;;;3.10;1.10;;;;;;;18.13;52.16;97847.03;10309216;28;20046;-86
2022/06/09 20:29:26;;;;;;;3.38;1.35;;;;;;;18.04;52.45;97854.44;10299008;28;20039;-91
2022/06/09 20:34:47;;;;;;;3.63;1.90;;;;;;;17.99;52.38;97850.03;10325795;28;20411;-89
2022/06/09 20:40:10;;;;;;;3.92;1.63;;;;;;;17.93;52.58;97853.31;10299793;28;20051;-90
2022/06/09 20:45:32;;;;;;;;;;;;;;;17.87;53.03;97852.34;10312564;28;20046;-90
2022/06/09 20:50:58;;;;;;;2.65;1.73;;;;;;;17.84;52.76;97854.34;10328769;28;19930;-90
2022/06/09 20:56:19;;;;;;;2.42;1.20;;;;;;;17.81;52.62;97852.81;10316860;28;20049;-90
2022/06/09 21:01:40;;;;;;;2.67;1.60;;;;;;;17.77;52.59;97855.50;10306700;28;20073;-90
2022/06/09 21:07:01;;;;;;;5.93;1.30;;;;;;;17.71;52.73;97849.59;10316905;28;20050;-89
2022/06/09 21:18:10;;;;;;;3.22;1.20;;;;;;;17.69;52.67;97853.06;10310190;28;20054;-87
2022/06/09 21:23:31;;;;;;;3.03;1.50;;;;;;;17.64;52.67;97861.97;10323113;28;20412;-89
2022/06/09 21:28:52;;;;;;;2.50;1.08;;;;;;;17.64;52.55;97871.16;10297105;28;20116;-89
2022/06/09 21:34:13;;;;;;;2.17;1.05;;;;;;;17.65;52.53;97872.59;10294014;28;20039;-90
2022/06/09 21:39:34;;;;;;;2.35;1.17;;;;;;;17.76;52.43;97876.63;10321903;28;20058;-91
2022/06/09 21:44:55;;;;;;;4.68;1.58;;;;;;;17.83;52.26;97883.97;10308129;28;20038;-91
2022/06/09 21:50:17;;;;;;;5.32;1.48;;;;;;;17.92;52.19;97891.41;10308191;28;20046;-88
2022/06/09 21:55:38;;;;;;;4.35;1.60;;;;;;;17.95;52.41;97886.56;10321349;28;20103;-91
2022/06/09 22:00:59;;;;;;;3.58;1.75;;;;;;;17.96;52.31;97894.41;10307981;28;20447;-91
2022/06/09 22:06:20;;;;;;;3.33;1.48;;;;;;;17.98;52.00;97885.28;10322628;28;20465;-91
2022/06/09 22:11:41;;;;;;;1.98;1.40;;;;;;;17.97;52.28;97889.47;10322479;28;20104;-91
2022/06/09 22:17:01;;;;;;;3.53;1.33;;;;;;;17.93;52.14;97900.59;10322120;28;20038;-90
2022/06/09 22:22:23;;;;;;;3.10;1.55;;;;;;;17.91;52.25;97904.06;10308871;28;20046;-90
2022/06/09 22:27:44;;;;;;;3.20;1.70;;;;;;;17.91;52.33;97915.34;10305132;28;20480;-90
2022/06/09 22:33:06;;;;;;;3.17;1.70;;;;;;;17.88;52.40;97916.66;10324565;28;20042;-89
2022/06/09 22:38:26;;;;;;;2.97;1.70;;;;;;;17.84;52.63;97919.28;10317144;28;20751;-89
2022/06/09 22:43:47;;;;;;;8.15;1.80;;;;;;;17.82;52.77;97919.22;10316851;28;20397;-89
2022/06/09 22:49:08;;;;;;;5.55;2.00;;;;;;;17.76;52.86;97918.97;10295618;28;20075;-90
2022/06/09 22:54:29;;;;;;;3.45;1.90;;;;;;;17.72;52.96;97924.44;10289951;28;20046;-88
2022/06/09 22:59:50;;;;;;;4.47;2.10;;;;;;;17.74;52.75;97930.16;10282012;28;20050;-90
2022/06/09 23:05:10;;;;;;;5.00;1.92;;;;;;;17.71;52.84;97942.75;10315852;28;20440;-92
2022/06/09 23:10:31;;;;;;;3.05;1.52;;;;;;;17.69;53.02;97940.56;10293765;28;20096;-90
2022/06/09 23:15:52;;;;;;;5.07;2.00;;;;;;;17.71;52.96;97946.28;10320581;28;20050;-92
2022/06/09 23:21:13;;;;;;;4.93;2.00;;;;;;;17.72;53.11;97958.31;10293324;28;20043;-92
2022/06/09 23:26:34;;;;;;;5.05;2.10;;;;;;;17.72;53.21;97958.31;10320347;28;20057;-90
2022/06/09 23:31:58;;;;;;;3.83;1.90;;;;;;;17.72;53.22;97961.13;10306680;28;20412;-91
2022/06/09 23:37:21;;;;;;;6.03;2.17;;;;;;;17.73;53.35;97962.59;10307510;28;20059;-91
2022/06/09 23:42:43;;;;;;;4.77;2.00;;;;;;;17.74;53.67;97972.50;10319385;28;20043;-91
2022/06/09 23:48:13;;;;;;;4.65;2.15;;;;;;;17.76;53.55;97969.78;10306416;28;20277;-90
2022/06/09 23:53:34;;;;;;;4.78;1.98;;;;;;;17.73;53.66;97976.69;10320428;28;20066;-91
2022/06/09 23:58:56;;;;;;;6.57;2.40;;;;;;;17.72;53.67;97980.91;10297564;28;20049;-91
